sensor_id;sensor_type;location;lat;lon;timestamp;pressure;altitude;pressure_sealevel;temperature;humidity
49801;BME280;35698;50.232;30.540;2023-03-14T00:00:20;100356.03;;;9.83;51.78
49801;BME280;35698;50.232;30.540;2023-03-14T00:01:31;100360.59;;;9.97;51.80
49801;BME280;35698;50.232;30.540;2023-03-14T00:02:34;100357.25;;;9.94;51.64
49801;BME280;35698;50.232;30.540;2023-03-14T00:03:56;100355.39;;;9.96;51.66
49801;BME280;35698;50.232;30.540;2023-03-14T00:05:08;100350.92;;;10.13;51.58
49801;BME280;35698;50.232;30.540;2023-03-14T00:06:13;100350.03;;;9.97;51.55
49801;BME280;35698;50.232;30.540;2023-03-14T00:07:36;100352.75;;;9.96;51.34
49801;BME280;35698;50.232;30.540;2023-03-14T00:08:41;100356.64;;;9.89;51.68
49801;BME280;35698;50.232;30.540;2023-03-14T00:09:52;100356.77;;;10.03;51.70
49801;BME280;35698;50.232;30.540;2023-03-14T00:10:56;100351.05;;;9.95;51.63
49801;BME280;35698;50.232;30.540;2023-03-14T00:12:08;100351.17;;;10.09;51.43
49801;BME280;35698;50.232;30.540;2023-03-14T00:13:11;100353.36;;;10.01;51.41
49801;BME280;35698;50.232;30.540;2023-03-14T00:14:23;100356.20;;;10.13;51.49
49801;BME280;35698;50.232;30.540;2023-03-14T00:15:26;100353.84;;;9.92;51.36
49801;BME280;35698;50.232;30.540;2023-03-14T00:16:29;100352.46;;;9.84;51.59
49801;BME280;35698;50.232;30.540;2023-03-14T00:17:34;100365.03;;;9.79;51.77
49801;BME280;35698;50.232;30.540;2023-03-14T00:18:45;100348.77;;;10.04;51.72
49801;BME280;35698;50.232;30.540;2023-03-14T00:19:49;100352.37;;;9.86;51.67
49801;BME280;35698;50.232;30.540;2023-03-14T00:21:01;100347.52;;;10.11;51.61
49801;BME280;35698;50.232;30.540;2023-03-14T00:22:05;100351.98;;;9.94;51.40
49801;BME280;35698;50.232;30.540;2023-03-14T00:23:08;100338.70;;;9.95;51.37
49801;BME280;35698;50.232;30.540;2023-03-14T00:24:23;100339.31;;;10.00;51.66
49801;BME280;35698;50.232;30.540;2023-03-14T00:25:26;100343.20;;;9.93;51.54
49801;BME280;35698;50.232;30.540;2023-03-14T00:26:29;100340.12;;;9.85;51.62
49801;BME280;35698;50.232;30.540;2023-03-14T00:27:36;100336.41;;;9.72;51.80
49801;BME280;35698;50.232;30.540;2023-03-14T00:28:52;100325.75;;;9.91;51.83
49801;BME280;35698;50.232;30.540;2023-03-14T00:29:56;100345.72;;;9.79;51.84
49801;BME280;35698;50.232;30.540;2023-03-14T00:31:05;100328.87;;;9.81;51.84
49801;BME280;35698;50.232;30.540;2023-03-14T00:32:16;100334.52;;;9.91;51.79
49801;BME280;35698;50.232;30.540;2023-03-14T00:33:20;100338.98;;;9.73;51.85
49801;BME280;35698;50.232;30.540;2023-03-14T00:34:23;100328.10;;;9.79;51.82
49801;BME280;35698;50.232;30.540;2023-03-14T00:35:57;100323.59;;;9.81;51.62
49801;BME280;35698;50.232;30.540;2023-03-14T00:37:09;100319.78;;;9.87;51.85
49801;BME280;35698;50.232;30.540;2023-03-14T00:38:12;100322.21;;;9.74;51.78
49801;BME280;35698;50.232;30.540;2023-03-14T00:39:23;100319.02;;;9.85;51.87
49801;BME280;35698;50.232;30.540;2023-03-14T00:40:26;100320.34;;;9.76;51.88
49801;BME280;35698;50.232;30.540;2023-03-14T00:41:48;100317.02;;;9.73;51.93
49801;BME280;35698;50.232;30.540;2023-03-14T00:43:09;100318.88;;;9.71;51.89
49801;BME280;35698;50.232;30.540;2023-03-14T00:44:21;100315.60;;;9.83;51.81
49801;BME280;35698;50.232;30.540;2023-03-14T00:45:24;100315.23;;;9.73;51.85
49801;BME280;35698;50.232;30.540;2023-03-14T00:46:46;100323.36;;;9.53;51.68
49801;BME280;35698;50.232;30.540;2023-03-14T00:48:07;100322.39;;;9.54;52.08
49801;BME280;35698;50.232;30.540;2023-03-14T00:49:18;100307.64;;;9.67;52.19
49801;BME280;35698;50.232;30.540;2023-03-14T00:50:21;100311.42;;;9.46;52.28
49801;BME280;35698;50.232;30.540;2023-03-14T00:51:42;100305.98;;;9.49;52.27
49801;BME280;35698;50.232;30.540;2023-03-14T00:53:04;100309.48;;;9.49;52.35
49801;BME280;35698;50.232;30.540;2023-03-14T00:54:15;100305.22;;;9.47;52.58
49801;BME280;35698;50.232;30.540;2023-03-14T00:55:18;100304.67;;;9.40;52.52
49801;BME280;35698;50.232;30.540;2023-03-14T00:56:40;100303.98;;;9.37;52.68
49801;BME280;35698;50.232;30.540;2023-03-14T00:58:01;100310.96;;;9.38;52.58
49801;BME280;35698;50.232;30.540;2023-03-14T00:59:12;100296.98;;;9.53;52.60
49801;BME280;35698;50.232;30.540;2023-03-14T01:00:16;100295.76;;;9.43;52.51
49801;BME280;35698;50.232;30.540;2023-03-14T01:01:39;100296.69;;;9.42;52.41
49801;BME280;35698;50.232;30.540;2023-03-14T01:02:50;100290.01;;;9.52;52.48
49801;BME280;35698;50.232;30.540;2023-03-14T01:03:55;100290.95;;;9.34;52.62
49801;BME280;35698;50.232;30.540;2023-03-14T01:05:16;100288.48;;;9.31;52.71
49801;BME280;35698;50.232;30.540;2023-03-14T01:06:25;100286.53;;;9.34;52.78
49801;BME280;35698;50.232;30.540;2023-03-14T01:07:28;100288.63;;;9.28;52.83
49801;BME280;35698;50.232;30.540;2023-03-14T01:08:39;100289.47;;;9.45;52.69
49801;BME280;35698;50.232;30.540;2023-03-14T01:09:43;100296.30;;;9.32;52.76
49801;BME280;35698;50.232;30.540;2023-03-14T01:10:48;100295.61;;;9.29;53.00
49801;BME280;35698;50.232;30.540;2023-03-14T01:12:00;100295.91;;;9.40;52.89
49801;BME280;35698;50.232;30.540;2023-03-14T01:18:48;100297.78;;;9.38;53.00
49801;BME280;35698;50.232;30.540;2023-03-14T01:19:51;100298.87;;;9.34;53.02
49801;BME280;35698;50.232;30.540;2023-03-14T01:20:55;100299.56;;;9.37;53.00
49801;BME280;35698;50.232;30.540;2023-03-14T01:21:58;100294.83;;;9.44;52.96
49801;BME280;35698;50.232;30.540;2023-03-14T01:23:09;100295.09;;;9.55;52.83
49801;BME280;35698;50.232;30.540;2023-03-14T01:24:12;100306.06;;;9.47;52.78
49801;BME280;35698;50.232;30.540;2023-03-14T01:25:17;100305.69;;;9.38;52.92
49801;BME280;35698;50.232;30.540;2023-03-14T01:26:22;100301.80;;;9.45;52.85
49801;BME280;35698;50.232;30.540;2023-03-14T01:27:26;100295.76;;;9.43;52.80
49801;BME280;35698;50.232;30.540;2023-03-14T01:28:37;100295.09;;;9.55;52.80
49801;BME280;35698;50.232;30.540;2023-03-14T01:29:40;100294.67;;;9.47;52.77
49801;BME280;35698;50.232;30.540;2023-03-14T01:30:51;100297.48;;;9.60;52.73
49801;BME280;35698;50.232;30.540;2023-03-14T01:31:54;100302.04;;;9.40;52.80
49801;BME280;35698;50.232;30.540;2023-03-14T01:32:58;100299.48;;;9.39;52.82
49801;BME280;35698;50.232;30.540;2023-03-14T01:34:09;100294.43;;;9.51;52.96
49801;BME280;35698;50.232;30.540;2023-03-14T01:35:12;100298.23;;;9.46;52.82
49801;BME280;35698;50.232;30.540;2023-03-14T01:36:16;100306.00;;;9.32;52.98
49801;BME280;35698;50.232;30.540;2023-03-14T01:37:20;100298.70;;;9.37;53.01
49801;BME280;35698;50.232;30.540;2023-03-14T01:38:32;100300.64;;;9.50;52.94
49801;BME280;35698;50.232;30.540;2023-03-14T01:39:35;100301.88;;;9.43;52.88
49801;BME280;35698;50.232;30.540;2023-03-14T01:40:44;100304.59;;;9.42;52.96
49801;BME280;35698;50.232;30.540;2023-03-14T01:41:55;100307.34;;;9.56;52.95
49801;BME280;35698;50.232;30.540;2023-03-14T01:44:16;100308.28;;;9.55;52.85
49801;BME280;35698;50.232;30.540;2023-03-14T01:47:00;100305.61;;;9.39;52.89
49801;BME280;35698;50.232;30.540;2023-03-14T01:48:11;100309.09;;;9.40;53.12
49801;BME280;35698;50.232;30.540;2023-03-14T01:50:24;100315.22;;;9.23;53.35
49801;BME280;35698;50.232;30.540;2023-03-14T01:53:10;100312.59;;;9.23;53.61
49801;BME280;35698;50.232;30.540;2023-03-14T01:54:20;100306.92;;;9.13;53.59
49801;BME280;35698;50.232;30.540;2023-03-14T01:55:31;100301.89;;;9.26;53.55
49801;BME280;35698;50.232;30.540;2023-03-14T01:56:36;100310.34;;;9.15;53.68
49801;BME280;35698;50.232;30.540;2023-03-14T01:57:46;100305.77;;;9.19;53.64
49801;BME280;35698;50.232;30.540;2023-03-14T01:59:09;100307.39;;;9.22;53.55
49801;BME280;35698;50.232;30.540;2023-03-14T02:00:22;100301.66;;;9.13;53.79
49801;BME280;35698;50.232;30.540;2023-03-14T02:01:26;100297.39;;;9.11;53.71
49801;BME280;35698;50.232;30.540;2023-03-14T02:02:30;100306.23;;;9.10;53.74
49801;BME280;35698;50.232;30.540;2023-03-14T02:03:56;100296.84;;;9.04;53.78
49801;BME280;35698;50.232;30.540;2023-03-14T02:05:09;100300.56;;;9.00;54.11
49801;BME280;35698;50.232;30.540;2023-03-14T02:06:14;100298.23;;;8.94;54.10
49801;BME280;35698;50.232;30.540;2023-03-14T02:07:45;100301.41;;;9.01;54.21
49801;BME280;35698;50.232;30.540;2023-03-14T02:08:46;100286.91;;;8.92;54.17
49801;BME280;35698;50.232;30.540;2023-03-14T02:10:01;100295.44;;;8.97;54.34
49801;BME280;35698;50.232;30.540;2023-03-14T02:11:05;100299.01;;;8.96;54.14
49801;BME280;35698;50.232;30.540;2023-03-14T02:12:10;100299.16;;;8.93;54.22
49801;BME280;35698;50.232;30.540;2023-03-14T02:13:32;100294.66;;;8.95;54.19
49801;BME280;35698;50.232;30.540;2023-03-14T02:14:44;100288.09;;;9.04;54.17
49801;BME280;35698;50.232;30.540;2023-03-14T02:15:48;100295.67;;;8.93;54.12
49801;BME280;35698;50.232;30.540;2023-03-14T02:16:51;100299.94;;;8.95;54.03
49801;BME280;35698;50.232;30.540;2023-03-14T02:18:04;100287.99;;;8.88;54.08
49801;BME280;35698;50.232;30.540;2023-03-14T02:19:10;100287.74;;;8.75;54.19
49801;BME280;35698;50.232;30.540;2023-03-14T02:20:51;100294.34;;;8.84;54.34
49801;BME280;35698;50.232;30.540;2023-03-14T02:22:20;100292.78;;;8.80;54.40
49801;BME280;35698;50.232;30.540;2023-03-14T02:23:38;100291.52;;;8.70;54.45
49801;BME280;35698;50.232;30.540;2023-03-14T02:26:20;100285.81;;;8.62;54.61
49801;BME280;35698;50.232;30.540;2023-03-14T02:27:43;100291.45;;;8.54;54.79
49801;BME280;35698;50.232;30.540;2023-03-14T02:28:47;100288.73;;;8.56;54.75
49801;BME280;35698;50.232;30.540;2023-03-14T02:33:15;100286.47;;;8.48;54.90
49801;BME280;35698;50.232;30.540;2023-03-14T02:34:23;100287.98;;;8.35;55.17
49801;BME280;35698;50.232;30.540;2023-03-14T02:35:41;100292.73;;;8.45;55.19
49801;BME280;35698;50.232;30.540;2023-03-14T02:36:45;100287.23;;;8.31;55.19
49801;BME280;35698;50.232;30.540;2023-03-14T02:39:29;100287.91;;;8.36;55.37
49801;BME280;35698;50.232;30.540;2023-03-14T02:40:31;100293.71;;;8.24;55.16
49801;BME280;35698;50.232;30.540;2023-03-14T02:41:52;100294.56;;;8.25;55.15
49801;BME280;35698;50.232;30.540;2023-03-14T02:43:14;100295.48;;;8.23;55.25
49801;BME280;35698;50.232;30.540;2023-03-14T02:44:28;100299.36;;;8.35;55.21
49801;BME280;35698;50.232;30.540;2023-03-14T02:45:46;100298.83;;;8.27;55.21
49801;BME280;35698;50.232;30.540;2023-03-14T02:47:08;100298.83;;;8.27;55.15
49801;BME280;35698;50.232;30.540;2023-03-14T02:48:36;100296.20;;;8.27;55.14
49801;BME280;35698;50.232;30.540;2023-03-14T02:49:48;100308.11;;;8.36;55.13
49801;BME280;35698;50.232;30.540;2023-03-14T02:50:58;100292.86;;;8.23;55.04
49801;BME280;35698;50.232;30.540;2023-03-14T02:52:16;100294.56;;;8.25;54.95
49801;BME280;35698;50.232;30.540;2023-03-14T02:53:38;100292.00;;;8.23;54.85
49801;BME280;35698;50.232;30.540;2023-03-14T02:55:09;100288.66;;;8.19;55.08
49801;BME280;35698;50.232;30.540;2023-03-14T02:56:12;100287.38;;;8.09;55.01
49801;BME280;35698;50.232;30.540;2023-03-14T02:57:16;100297.91;;;8.09;55.09
49801;BME280;35698;50.232;30.540;2023-03-14T02:58:37;100299.54;;;8.12;54.93
49801;BME280;35698;50.232;30.540;2023-03-14T02:59:48;100303.45;;;8.22;54.91
49801;BME280;35698;50.232;30.540;2023-03-14T03:00:52;100312.77;;;8.10;54.81
49801;BME280;35698;50.232;30.540;2023-03-14T03:01:55;100295.70;;;8.19;54.63
49801;BME280;35698;50.232;30.540;2023-03-14T03:03:16;100300.67;;;8.06;54.59
49801;BME280;35698;50.232;30.540;2023-03-14T03:04:28;100304.23;;;8.24;54.62
49801;BME280;35698;50.232;30.540;2023-03-14T03:05:32;100311.91;;;8.10;54.68
49801;BME280;35698;50.232;30.540;2023-03-14T03:06:35;100309.42;;;8.07;54.49
49801;BME280;35698;50.232;30.540;2023-03-14T03:07:57;100314.04;;;8.02;54.69
49801;BME280;35698;50.232;30.540;2023-03-14T03:09:08;100308.08;;;8.17;54.63
49801;BME280;35698;50.232;30.540;2023-03-14T03:10:12;100310.34;;;8.06;54.56
49801;BME280;35698;50.232;30.540;2023-03-14T03:11:35;100311.91;;;8.10;54.47
49801;BME280;35698;50.232;30.540;2023-03-14T03:12:38;100322.44;;;8.10;54.65
49801;BME280;35698;50.232;30.540;2023-03-14T03:13:49;100313.48;;;8.14;54.50
49801;BME280;35698;50.232;30.540;2023-03-14T03:14:53;100311.55;;;7.99;54.43
49801;BME280;35698;50.232;30.540;2023-03-14T03:16:04;100306.23;;;8.19;54.38
49801;BME280;35698;50.232;30.540;2023-03-14T03:17:07;100313.83;;;8.06;54.42
49801;BME280;35698;50.232;30.540;2023-03-14T03:18:14;100313.83;;;8.06;54.26
49801;BME280;35698;50.232;30.540;2023-03-14T03:19:17;100312.91;;;8.07;54.16
49801;BME280;35698;50.232;30.540;2023-03-14T03:20:28;100306.80;;;8.07;54.23
49801;BME280;35698;50.232;30.540;2023-03-14T03:21:32;100311.62;;;7.97;54.29
49801;BME280;35698;50.232;30.540;2023-03-14T03:22:37;100307.99;;;8.00;54.35
49801;BME280;35698;50.232;30.540;2023-03-14T03:23:49;100307.50;;;8.10;54.17
49801;BME280;35698;50.232;30.540;2023-03-14T03:24:52;100294.98;;;7.97;54.15
49801;BME280;35698;50.232;30.540;2023-03-14T03:26:14;100301.02;;;7.99;54.25
49801;BME280;35698;50.232;30.540;2023-03-14T03:27:18;100304.58;;;7.98;54.26
49801;BME280;35698;50.232;30.540;2023-03-14T03:28:29;100303.52;;;8.02;54.27
49801;BME280;35698;50.232;30.540;2023-03-14T03:29:32;100299.02;;;7.85;54.28
49801;BME280;35698;50.232;30.540;2023-03-14T03:30:40;100303.15;;;7.90;54.31
49801;BME280;35698;50.232;30.540;2023-03-14T03:31:44;100298.67;;;7.93;54.14
49801;BME280;35698;50.232;30.540;2023-03-14T03:32:55;100307.86;;;8.03;54.17
49801;BME280;35698;50.232;30.540;2023-03-14T03:33:58;100296.83;;;7.95;54.08
49801;BME280;35698;50.232;30.540;2023-03-14T03:35:04;100294.20;;;7.95;54.08
49801;BME280;35698;50.232;30.540;2023-03-14T03:36:21;100294.49;;;8.07;53.92
49801;BME280;35698;50.232;30.540;2023-03-14T03:37:24;100295.55;;;8.03;53.70
49801;BME280;35698;50.232;30.540;2023-03-14T03:38:46;100296.34;;;8.05;53.71
49801;BME280;35698;50.232;30.540;2023-03-14T03:40:04;100281.20;;;8.10;53.61
49801;BME280;35698;50.232;30.540;2023-03-14T03:41:08;100286.17;;;7.98;53.75
49801;BME280;35698;50.232;30.540;2023-03-14T03:42:11;100289.14;;;7.90;53.65
49801;BME280;35698;50.232;30.540;2023-03-14T03:43:15;100287.44;;;7.89;53.80
49801;BME280;35698;50.232;30.540;2023-03-14T03:44:26;100282.47;;;8.02;53.76
49801;BME280;35698;50.232;30.540;2023-03-14T03:45:29;100295.26;;;7.90;53.73
49801;BME280;35698;50.232;30.540;2023-03-14T03:46:41;100287.73;;;8.02;53.79
49801;BME280;35698;50.232;30.540;2023-03-14T03:47:44;100292.91;;;7.84;53.65
49801;BME280;35698;50.232;30.540;2023-03-14T03:51:31;100300.45;;;7.92;53.64
49801;BME280;35698;50.232;30.540;2023-03-14T03:52:34;100291.91;;;7.87;53.66
49801;BME280;35698;50.232;30.540;2023-03-14T03:53:38;100287.64;;;7.84;53.64
49801;BME280;35698;50.232;30.540;2023-03-14T03:54:52;100287.71;;;7.83;53.84
49801;BME280;35698;50.232;30.540;2023-03-14T03:55:55;100290.00;;;7.72;53.97
49801;BME280;35698;50.232;30.540;2023-03-14T03:56:58;100284.67;;;7.73;53.88
49801;BME280;35698;50.232;30.540;2023-03-14T03:58:02;100286.24;;;7.77;53.87
49801;BME280;35698;50.232;30.540;2023-03-14T03:59:05;100281.13;;;7.74;53.87
49801;BME280;35698;50.232;30.540;2023-03-14T04:00:16;100284.81;;;7.89;53.89
49801;BME280;35698;50.232;30.540;2023-03-14T04:01:21;100277.84;;;7.69;53.91
49801;BME280;35698;50.232;30.540;2023-03-14T04:02:24;100277.78;;;7.71;54.03
49801;BME280;35698;50.232;30.540;2023-03-14T04:03:35;100286.24;;;7.77;54.01
49801;BME280;35698;50.232;30.540;2023-03-14T04:04:38;100276.92;;;7.70;54.05
49801;BME280;35698;50.232;30.540;2023-03-14T04:05:42;100275.02;;;7.74;53.97
49801;BME280;35698;50.232;30.540;2023-03-14T04:06:45;100279.89;;;7.63;53.99
49801;BME280;35698;50.232;30.540;2023-03-14T04:07:56;100278.91;;;7.84;53.97
49801;BME280;35698;50.232;30.540;2023-03-14T04:09:00;100274.23;;;7.72;53.88
49801;BME280;35698;50.232;30.540;2023-03-14T04:10:11;100274.50;;;7.84;54.03
49801;BME280;35698;50.232;30.540;2023-03-14T04:11:14;100274.23;;;7.72;54.11
49801;BME280;35698;50.232;30.540;2023-03-14T04:12:36;100276.27;;;7.65;54.01
49801;BME280;35698;50.232;30.540;2023-03-14T04:13:39;100270.91;;;7.48;54.22
49801;BME280;35698;50.232;30.540;2023-03-14T04:14:50;100269.45;;;7.61;54.57
49801;BME280;35698;50.232;30.540;2023-03-14T04:15:54;100280.30;;;7.53;54.49
49801;BME280;35698;50.232;30.540;2023-03-14T04:17:16;100275.04;;;7.53;54.47
49801;BME280;35698;50.232;30.540;2023-03-14T04:18:27;100274.30;;;7.70;54.41
49801;BME280;35698;50.232;30.540;2023-03-14T04:19:31;100276.03;;;7.51;54.38
49801;BME280;35698;50.232;30.540;2023-03-14T04:20:54;100276.03;;;7.51;54.59
49801;BME280;35698;50.232;30.540;2023-03-14T04:22:00;100274.97;;;7.55;54.52
49801;BME280;35698;50.232;30.540;2023-03-14T04:23:11;100283.31;;;7.65;54.45
49801;BME280;35698;50.232;30.540;2023-03-14T04:24:15;100287.08;;;7.39;54.47
49801;BME280;35698;50.232;30.540;2023-03-14T04:25:36;100278.66;;;7.51;54.47
49801;BME280;35698;50.232;30.540;2023-03-14T04:26:47;100277.91;;;7.68;54.27
49801;BME280;35698;50.232;30.540;2023-03-14T04:27:50;100279.45;;;7.53;54.29
49801;BME280;35698;50.232;30.540;2023-03-14T04:29:12;100283.71;;;7.55;54.39
49801;BME280;35698;50.232;30.540;2023-03-14T04:30:23;100295.33;;;7.70;54.42
49801;BME280;35698;50.232;30.540;2023-03-14T04:31:26;100281.59;;;7.64;54.25
49801;BME280;35698;50.232;30.540;2023-03-14T04:32:48;100292.25;;;7.61;54.24
49801;BME280;35698;50.232;30.540;2023-03-14T04:34:29;100289.28;;;7.68;54.15
49801;BME280;35698;50.232;30.540;2023-03-14T04:35:33;100289.14;;;7.71;53.93
49801;BME280;35698;50.232;30.540;2023-03-14T04:36:37;100286.31;;;7.76;53.86
49801;BME280;35698;50.232;30.540;2023-03-14T04:37:42;100285.25;;;7.80;53.84
49801;BME280;35698;50.232;30.540;2023-03-14T04:38:45;100282.52;;;7.81;53.83
49801;BME280;35698;50.232;30.540;2023-03-14T04:39:56;100291.50;;;7.96;53.78
49801;BME280;35698;50.232;30.540;2023-03-14T04:41:00;100286.86;;;7.82;53.75
49801;BME280;35698;50.232;30.540;2023-03-14T04:42:04;100285.80;;;7.86;53.81
49801;BME280;35698;50.232;30.540;2023-03-14T04:43:25;100285.66;;;7.89;53.68
49801;BME280;35698;50.232;30.540;2023-03-14T04:44:28;100288.15;;;7.93;53.61
49801;BME280;35698;50.232;30.540;2023-03-14T04:45:43;100277.78;;;8.08;53.48
49801;BME280;35698;50.232;30.540;2023-03-14T04:46:46;100271.09;;;8.01;53.52
49801;BME280;35698;50.232;30.540;2023-03-14T04:47:50;100271.80;;;8.05;53.50
49801;BME280;35698;50.232;30.540;2023-03-14T04:49:11;100271.80;;;8.05;53.45
49801;BME280;35698;50.232;30.540;2023-03-14T04:50:22;100267.40;;;8.05;53.56
49801;BME280;35698;50.232;30.540;2023-03-14T04:51:26;100268.33;;;8.04;53.52
49801;BME280;35698;50.232;30.540;2023-03-14T04:52:29;100274.51;;;8.03;53.39
49801;BME280;35698;50.232;30.540;2023-03-14T04:53:51;100267.54;;;8.02;53.25
49801;BME280;35698;50.232;30.540;2023-03-14T04:55:02;100262.84;;;8.09;53.46
49801;BME280;35698;50.232;30.540;2023-03-14T04:56:06;100264.77;;;8.05;53.51
49801;BME280;35698;50.232;30.540;2023-03-14T04:57:21;100264.05;;;8.20;53.38
49801;BME280;35698;50.232;30.540;2023-03-14T04:58:24;100263.13;;;8.03;53.25
49801;BME280;35698;50.232;30.540;2023-03-14T04:59:30;100258.44;;;8.09;53.24
49801;BME280;35698;50.232;30.540;2023-03-14T05:00:42;100255.94;;;8.25;53.18
49801;BME280;35698;50.232;30.540;2023-03-14T05:01:45;100258.94;;;8.17;53.24
49801;BME280;35698;50.232;30.540;2023-03-14T05:02:48;100248.19;;;8.22;53.05
49801;BME280;35698;50.232;30.540;2023-03-14T05:04:00;100243.42;;;8.30;53.05
49801;BME280;35698;50.232;30.540;2023-03-14T05:05:03;100243.22;;;8.16;53.07
49801;BME280;35698;50.232;30.540;2023-03-14T05:06:15;100235.89;;;8.22;53.00
49801;BME280;35698;50.232;30.540;2023-03-14T05:07:18;100241.09;;;8.05;53.24
49801;BME280;35698;50.232;30.540;2023-03-14T05:08:30;100235.27;;;8.36;53.07
49801;BME280;35698;50.232;30.540;2023-03-14T05:09:33;100235.67;;;8.27;52.83
49801;BME280;35698;50.232;30.540;2023-03-14T05:10:37;100240.67;;;8.33;52.82
49801;BME280;35698;50.232;30.540;2023-03-14T05:11:41;100232.55;;;8.38;52.66
49801;BME280;35698;50.232;30.540;2023-03-14T05:12:52;100225.55;;;8.56;52.60
49801;BME280;35698;50.232;30.540;2023-03-14T05:13:56;100228.30;;;8.35;52.67
49801;BME280;35698;50.232;30.540;2023-03-14T05:14:59;100228.78;;;8.43;52.58
49801;BME280;35698;50.232;30.540;2023-03-14T05:16:04;100225.14;;;8.46;52.67
49801;BME280;35698;50.232;30.540;2023-03-14T05:17:16;100220.28;;;8.56;52.63
49801;BME280;35698;50.232;30.540;2023-03-14T05:18:19;100230.19;;;8.50;52.63
49801;BME280;35698;50.232;30.540;2023-03-14T05:19:22;100225.84;;;8.49;52.40
49801;BME280;35698;50.232;30.540;2023-03-14T05:20:34;100226.95;;;8.63;52.49
49801;BME280;35698;50.232;30.540;2023-03-14T05:21:37;100223.69;;;8.58;52.46
49801;BME280;35698;50.232;30.540;2023-03-14T05:22:41;100222.91;;;8.56;52.26
49801;BME280;35698;50.232;30.540;2023-03-14T05:23:52;100233.28;;;8.76;52.13
49801;BME280;35698;50.232;30.540;2023-03-14T05:24:56;100220.50;;;8.68;51.93
49801;BME280;35698;50.232;30.540;2023-03-14T05:25:59;100224.45;;;8.77;51.89
49801;BME280;35698;50.232;30.540;2023-03-14T05:27:10;100229.66;;;8.96;51.81
49801;BME280;35698;50.232;30.540;2023-03-14T05:28:14;100228.25;;;8.71;51.85
49801;BME280;35698;50.232;30.540;2023-03-14T05:29:17;100220.04;;;8.77;52.03
49801;BME280;35698;50.232;30.540;2023-03-14T05:30:29;100227.41;;;9.05;51.65
49801;BME280;35698;50.232;30.540;2023-03-14T05:31:32;100217.02;;;8.85;51.25
49801;BME280;35698;50.232;30.540;2023-03-14T05:32:36;100226.24;;;8.94;51.29
49801;BME280;35698;50.232;30.540;2023-03-14T05:33:40;100218.80;;;9.02;51.34
49801;BME280;35698;50.232;30.540;2023-03-14T05:35:02;100220.11;;;9.10;50.88
49801;BME280;35698;50.232;30.540;2023-03-14T05:36:13;100226.91;;;9.32;51.02
49801;BME280;35698;50.232;30.540;2023-03-14T05:37:16;100226.99;;;9.30;50.67
49801;BME280;35698;50.232;30.540;2023-03-14T05:38:28;100223.80;;;9.41;50.51
49801;BME280;35698;50.232;30.540;2023-03-14T05:39:31;100222.58;;;9.31;50.34
49801;BME280;35698;50.232;30.540;2023-03-14T05:40:35;100232.95;;;9.34;50.67
49801;BME280;35698;50.232;30.540;2023-03-14T05:41:46;100229.52;;;9.49;50.23
49801;BME280;35698;50.232;30.540;2023-03-14T05:42:49;100244.65;;;9.45;50.00
49801;BME280;35698;50.232;30.540;2023-03-14T05:43:53;100249.00;;;9.62;49.75
49801;BME280;35698;50.232;30.540;2023-03-14T05:45:05;100241.56;;;9.86;49.88
49801;BME280;35698;50.232;30.540;2023-03-14T05:46:09;100244.53;;;9.80;49.63
49801;BME280;35698;50.232;30.540;2023-03-14T05:47:13;100247.77;;;9.85;49.42
49801;BME280;35698;50.232;30.540;2023-03-14T05:48:17;100253.46;;;9.77;49.27
49801;BME280;35698;50.232;30.540;2023-03-14T05:49:29;100255.46;;;10.05;49.40
49801;BME280;35698;50.232;30.540;2023-03-14T05:50:32;100258.02;;;10.07;49.06
49801;BME280;35698;50.232;30.540;2023-03-14T05:51:36;100256.23;;;10.07;48.68
49801;BME280;35698;50.232;30.540;2023-03-14T05:52:40;100263.13;;;10.10;48.91
49801;BME280;35698;50.232;30.540;2023-03-14T05:53:51;100258.91;;;10.23;48.71
49801;BME280;35698;50.232;30.540;2023-03-14T05:54:55;100261.09;;;10.15;48.73
49801;BME280;35698;50.232;30.540;2023-03-14T05:56:07;100265.34;;;10.17;48.61
49801;BME280;35698;50.232;30.540;2023-03-14T05:57:11;100255.64;;;10.18;48.38
49801;BME280;35698;50.232;30.540;2023-03-14T05:58:24;100273.27;;;10.17;48.43
49801;BME280;35698;50.232;30.540;2023-03-14T05:59:29;100265.60;;;10.13;48.66
49801;BME280;35698;50.232;30.540;2023-03-14T06:00:51;100264.70;;;10.30;48.58
49801;BME280;35698;50.232;30.540;2023-03-14T06:02:03;100262.95;;;10.60;48.02
49801;BME280;35698;50.232;30.540;2023-03-14T06:03:07;100262.03;;;10.45;48.13
49801;BME280;35698;50.232;30.540;2023-03-14T06:04:28;100262.36;;;10.55;48.04
49801;BME280;35698;50.232;30.540;2023-03-14T06:05:41;100267.63;;;10.71;47.79
49801;BME280;35698;50.232;30.540;2023-03-14T06:06:46;100267.31;;;10.45;47.30
49801;BME280;35698;50.232;30.540;2023-03-14T06:08:08;100276.25;;;10.43;47.62
49801;BME280;35698;50.232;30.540;2023-03-14T06:09:20;100278.88;;;10.74;47.73
49801;BME280;35698;50.232;30.540;2023-03-14T06:10:24;100277.93;;;10.75;47.47
49801;BME280;35698;50.232;30.540;2023-03-14T06:11:46;100276.91;;;10.78;47.01
49801;BME280;35698;50.232;30.540;2023-03-14T06:13:08;100270.09;;;10.74;46.92
49801;BME280;35698;50.232;30.540;2023-03-14T06:14:19;100283.48;;;10.71;47.36
49801;BME280;35698;50.232;30.540;2023-03-14T06:15:23;100277.60;;;10.66;47.24
49801;BME280;35698;50.232;30.540;2023-03-14T06:16:45;100287.31;;;10.65;47.09
49801;BME280;35698;50.232;30.540;2023-03-14T06:18:06;100288.59;;;10.74;47.32
49801;BME280;35698;50.232;30.540;2023-03-14T06:19:18;100278.43;;;10.82;47.13
49801;BME280;35698;50.232;30.540;2023-03-14T06:20:22;100287.88;;;10.86;47.25
49801;BME280;35698;50.232;30.540;2023-03-14T06:21:44;100283.66;;;10.68;47.25
49801;BME280;35698;50.232;30.540;2023-03-14T06:23:07;100290.20;;;10.76;47.17